sensor_id;sensor_type;location;lat;lon;timestamp;P1;durP1;ratioP1;P2;durP2;ratioP2
12846;SDS011;6492;48.128;8.320;2023-08-12T00:01:03;3.58;;;2.85;;
12846;SDS011;6492;48.128;8.320;2023-08-12T00:05:07;3.25;;;2.95;;
12846;SDS011;6492;48.128;8.320;2023-08-12T00:09:10;3.15;;;2.85;;
12846;SDS011;6492;48.128;8.320;2023-08-12T00:13:15;4.00;;;2.90;;
12846;SDS011;6492;48.128;8.320;2023-08-12T00:17:17;4.70;;;3.30;;
12846;SDS011;6492;48.128;8.320;2023-08-12T00:21:20;3.63;;;3.30;;
12846;SDS011;6492;48.128;8.320;2023-08-12T00:25:22;4.30;;;3.30;;
12846;SDS011;6492;48.128;8.320;2023-08-12T00:29:24;3.70;;;3.33;;
12846;SDS011;6492;48.128;8.320;2023-08-12T00:33:26;3.95;;;3.55;;
12846;SDS011;6492;48.128;8.320;2023-08-12T00:37:29;3.83;;;3.42;;
12846;SDS011;6492;48.128;8.320;2023-08-12T00:41:30;3.97;;;3.58;;
12846;SDS011;6492;48.128;8.320;2023-08-12T00:45:32;4.28;;;3.88;;
12846;SDS011;6492;48.128;8.320;2023-08-12T00:49:35;3.97;;;3.67;;
12846;SDS011;6492;48.128;8.320;2023-08-12T00:53:39;5.30;;;3.50;;
12846;SDS011;6492;48.128;8.320;2023-08-12T00:57:41;6.43;;;4.30;;
12846;SDS011;6492;48.128;8.320;2023-08-12T01:01:44;4.13;;;3.72;;
12846;SDS011;6492;48.128;8.320;2023-08-12T01:05:46;4.07;;;3.72;;
12846;SDS011;6492;48.128;8.320;2023-08-12T01:09:49;4.28;;;3.83;;
12846;SDS011;6492;48.128;8.320;2023-08-12T01:13:52;4.30;;;3.90;;
12846;SDS011;6492;48.128;8.320;2023-08-12T01:17:59;4.60;;;4.20;;
12846;SDS011;6492;48.128;8.320;2023-08-12T01:22:03;4.63;;;4.13;;
12846;SDS011;6492;48.128;8.320;2023-08-12T01:26:08;4.68;;;3.90;;
12846;SDS011;6492;48.128;8.320;2023-08-12T01:30:10;4.38;;;3.97;;
12846;SDS011;6492;48.128;8.320;2023-08-12T01:34:15;4.50;;;4.10;;
12846;SDS011;6492;48.128;8.320;2023-08-12T01:38:24;3.88;;;3.58;;
12846;SDS011;6492;48.128;8.320;2023-08-12T01:42:30;5.03;;;3.90;;
12846;SDS011;6492;48.128;8.320;2023-08-12T01:46:33;5.20;;;4.45;;
12846;SDS011;6492;48.128;8.320;2023-08-12T01:50:35;5.40;;;4.60;;
12846;SDS011;6492;48.128;8.320;2023-08-12T01:54:36;4.32;;;3.90;;
12846;SDS011;6492;48.128;8.320;2023-08-12T01:58:39;5.63;;;4.40;;
12846;SDS011;6492;48.128;8.320;2023-08-12T02:02:41;5.05;;;4.55;;
12846;SDS011;6492;48.128;8.320;2023-08-12T02:06:46;4.90;;;4.13;;
12846;SDS011;6492;48.128;8.320;2023-08-12T02:10:49;4.13;;;3.78;;
12846;SDS011;6492;48.128;8.320;2023-08-12T02:14:52;4.43;;;4.03;;
12846;SDS011;6492;48.128;8.320;2023-08-12T02:18:54;6.68;;;4.50;;
12846;SDS011;6492;48.128;8.320;2023-08-12T02:22:56;5.22;;;4.28;;
12846;SDS011;6492;48.128;8.320;2023-08-12T02:26:57;5.90;;;3.65;;
12846;SDS011;6492;48.128;8.320;2023-08-12T02:31:00;5.57;;;4.00;;
12846;SDS011;6492;48.128;8.320;2023-08-12T02:35:02;4.60;;;3.55;;
12846;SDS011;6492;48.128;8.320;2023-08-12T02:39:04;3.53;;;3.22;;
12846;SDS011;6492;48.128;8.320;2023-08-12T02:43:06;4.20;;;3.40;;
12846;SDS011;6492;48.128;8.320;2023-08-12T02:47:11;3.45;;;2.70;;
12846;SDS011;6492;48.128;8.320;2023-08-12T02:51:13;3.00;;;2.70;;
12846;SDS011;6492;48.128;8.320;2023-08-12T02:55:15;3.20;;;2.90;;
12846;SDS011;6492;48.128;8.320;2023-08-12T02:59:17;3.10;;;2.80;;
12846;SDS011;6492;48.128;8.320;2023-08-12T03:03:20;2.92;;;2.63;;
12846;SDS011;6492;48.128;8.320;2023-08-12T03:07:22;2.92;;;2.67;;
12846;SDS011;6492;48.128;8.320;2023-08-12T03:11:23;3.33;;;3.03;;
12846;SDS011;6492;48.128;8.320;2023-08-12T03:15:25;3.50;;;3.20;;
12846;SDS011;6492;48.128;8.320;2023-08-12T03:19:28;4.35;;;3.28;;
12846;SDS011;6492;48.128;8.320;2023-08-12T03:23:30;3.58;;;3.28;;
12846;SDS011;6492;48.128;8.320;2023-08-12T03:27:32;3.15;;;2.88;;
12846;SDS011;6492;48.128;8.320;2023-08-12T03:31:33;3.30;;;3.00;;
12846;SDS011;6492;48.128;8.320;2023-08-12T03:35:36;3.25;;;2.63;;
12846;SDS011;6492;48.128;8.320;2023-08-12T03:39:38;3.35;;;2.95;;
12846;SDS011;6492;48.128;8.320;2023-08-12T03:43:40;3.75;;;3.10;;
12846;SDS011;6492;48.128;8.320;2023-08-12T03:47:42;3.35;;;3.05;;
12846;SDS011;6492;48.128;8.320;2023-08-12T03:51:45;3.33;;;3.03;;
12846;SDS011;6492;48.128;8.320;2023-08-12T03:55:48;3.47;;;3.10;;
12846;SDS011;6492;48.128;8.320;2023-08-12T03:59:49;2.70;;;2.50;;
12846;SDS011;6492;48.128;8.320;2023-08-12T04:03:52;3.00;;;2.70;;
12846;SDS011;6492;48.128;8.320;2023-08-12T04:07:56;2.60;;;2.40;;
12846;SDS011;6492;48.128;8.320;2023-08-12T04:11:57;3.30;;;3.00;;
12846;SDS011;6492;48.128;8.320;2023-08-12T04:15:59;3.35;;;2.55;;
12846;SDS011;6492;48.128;8.320;2023-08-12T04:20:01;4.00;;;2.80;;
12846;SDS011;6492;48.128;8.320;2023-08-12T04:24:08;2.85;;;2.63;;
12846;SDS011;6492;48.128;8.320;2023-08-12T04:28:09;3.28;;;2.97;;
12846;SDS011;6492;48.128;8.320;2023-08-12T04:32:11;3.75;;;2.97;;
12846;SDS011;6492;48.128;8.320;2023-08-12T04:36:13;3.03;;;2.72;;
12846;SDS011;6492;48.128;8.320;2023-08-12T04:40:16;2.95;;;2.50;;
12846;SDS011;6492;48.128;8.320;2023-08-12T04:44:18;3.58;;;2.90;;
12846;SDS011;6492;48.128;8.320;2023-08-12T04:48:20;2.50;;;2.30;;
12846;SDS011;6492;48.128;8.320;2023-08-12T04:52:21;3.08;;;2.70;;
12846;SDS011;6492;48.128;8.320;2023-08-12T04:56:24;2.95;;;2.65;;
12846;SDS011;6492;48.128;8.320;2023-08-12T05:00:29;2.85;;;2.60;;
12846;SDS011;6492;48.128;8.320;2023-08-12T05:04:31;2.50;;;2.30;;
12846;SDS011;6492;48.128;8.320;2023-08-12T05:08:33;3.20;;;2.78;;
12846;SDS011;6492;48.128;8.320;2023-08-12T05:12:36;4.13;;;3.13;;
12846;SDS011;6492;48.128;8.320;2023-08-12T05:16:37;3.03;;;2.55;;
12846;SDS011;6492;48.128;8.320;2023-08-12T05:20:39;2.53;;;2.33;;
12846;SDS011;6492;48.128;8.320;2023-08-12T05:24:41;2.60;;;2.40;;
12846;SDS011;6492;48.128;8.320;2023-08-12T05:28:44;3.05;;;2.75;;
12846;SDS011;6492;48.128;8.320;2023-08-12T05:32:46;2.95;;;2.65;;
12846;SDS011;6492;48.128;8.320;2023-08-12T05:36:48;2.88;;;2.40;;
12846;SDS011;6492;48.128;8.320;2023-08-12T05:40:50;2.72;;;2.53;;
12846;SDS011;6492;48.128;8.320;2023-08-12T05:44:53;3.10;;;2.85;;
12846;SDS011;6492;48.128;8.320;2023-08-12T05:48:54;2.50;;;2.30;;
12846;SDS011;6492;48.128;8.320;2023-08-12T05:52:56;2.60;;;2.40;;
12846;SDS011;6492;48.128;8.320;2023-08-12T05:56:58;3.65;;;2.63;;
12846;SDS011;6492;48.128;8.320;2023-08-12T06:01:01;2.70;;;2.42;;
12846;SDS011;6492;48.128;8.320;2023-08-12T06:05:04;2.80;;;2.60;;
12846;SDS011;6492;48.128;8.320;2023-08-12T06:09:06;3.15;;;2.50;;
12846;SDS011;6492;48.128;8.320;2023-08-12T06:13:08;3.38;;;2.60;;
12846;SDS011;6492;48.128;8.320;2023-08-12T06:17:11;3.42;;;2.38;;
12846;SDS011;6492;48.128;8.320;2023-08-12T06:21:12;4.65;;;2.75;;
12846;SDS011;6492;48.128;8.320;2023-08-12T06:25:14;3.58;;;3.28;;
12846;SDS011;6492;48.128;8.320;2023-08-12T06:29:16;3.20;;;3.00;;
12846;SDS011;6492;48.128;8.320;2023-08-12T06:33:19;3.35;;;2.65;;
12846;SDS011;6492;48.128;8.320;2023-08-12T06:37:21;2.65;;;2.45;;
12846;SDS011;6492;48.128;8.320;2023-08-12T06:41:23;4.07;;;3.75;;
12846;SDS011;6492;48.128;8.320;2023-08-12T06:45:24;3.10;;;2.90;;
12846;SDS011;6492;48.128;8.320;2023-08-12T06:49:28;3.22;;;2.92;;
12846;SDS011;6492;48.128;8.320;2023-08-12T06:53:29;3.45;;;3.15;;
12846;SDS011;6492;48.128;8.320;2023-08-12T06:57:31;3.47;;;3.17;;
12846;SDS011;6492;48.128;8.320;2023-08-12T07:01:33;3.80;;;3.17;;
12846;SDS011;6492;48.128;8.320;2023-08-12T07:05:36;3.10;;;2.90;;
12846;SDS011;6492;48.128;8.320;2023-08-12T07:09:38;2.90;;;2.70;;
12846;SDS011;6492;48.128;8.320;2023-08-12T07:13:40;7.03;;;4.95;;
12846;SDS011;6492;48.128;8.320;2023-08-12T07:17:43;3.40;;;3.10;;
12846;SDS011;6492;48.128;8.320;2023-08-12T07:21:46;3.00;;;2.80;;
12846;SDS011;6492;48.128;8.320;2023-08-12T07:25:47;2.92;;;2.72;;
12846;SDS011;6492;48.128;8.320;2023-08-12T07:29:49;3.40;;;3.10;;
12846;SDS011;6492;48.128;8.320;2023-08-12T07:33:51;3.30;;;2.97;;
12846;SDS011;6492;48.128;8.320;2023-08-12T07:37:54;3.47;;;3.17;;
12846;SDS011;6492;48.128;8.320;2023-08-12T07:41:57;4.35;;;4.00;;
12846;SDS011;6492;48.128;8.320;2023-08-12T07:45:58;4.45;;;4.05;;
12846;SDS011;6492;48.128;8.320;2023-08-12T07:50:00;3.35;;;3.10;;
12846;SDS011;6492;48.128;8.320;2023-08-12T07:54:04;3.60;;;3.30;;
12846;SDS011;6492;48.128;8.320;2023-08-12T07:58:06;4.10;;;3.30;;
12846;SDS011;6492;48.128;8.320;2023-08-12T08:02:08;4.00;;;3.28;;
12846;SDS011;6492;48.128;8.320;2023-08-12T08:06:09;3.33;;;3.05;;
12846;SDS011;6492;48.128;8.320;2023-08-12T08:10:14;3.60;;;3.30;;
12846;SDS011;6492;48.128;8.320;2023-08-12T08:14:15;3.70;;;3.40;;
12846;SDS011;6492;48.128;8.320;2023-08-12T08:18:17;3.47;;;3.17;;
12846;SDS011;6492;48.128;8.320;2023-08-12T08:22:19;3.97;;;3.25;;
12846;SDS011;6492;48.128;8.320;2023-08-12T08:26:22;3.70;;;3.40;;
12846;SDS011;6492;48.128;8.320;2023-08-12T08:30:24;6.13;;;5.32;;
12846;SDS011;6492;48.128;8.320;2023-08-12T08:34:26;4.75;;;4.35;;
12846;SDS011;6492;48.128;8.320;2023-08-12T08:38:27;3.55;;;3.25;;
12846;SDS011;6492;48.128;8.320;2023-08-12T08:42:31;4.45;;;3.60;;
12846;SDS011;6492;48.128;8.320;2023-08-12T08:46:33;3.78;;;3.47;;
12846;SDS011;6492;48.128;8.320;2023-08-12T08:50:36;4.47;;;3.72;;
12846;SDS011;6492;48.128;8.320;2023-08-12T08:54:40;3.92;;;3.63;;
12846;SDS011;6492;48.128;8.320;2023-08-12T08:58:43;3.60;;;3.25;;
12846;SDS011;6492;48.128;8.320;2023-08-12T09:02:45;3.50;;;3.20;;
12846;SDS011;6492;48.128;8.320;2023-08-12T09:06:48;3.28;;;2.97;;
12846;SDS011;6492;48.128;8.320;2023-08-12T09:10:52;3.90;;;3.45;;
12846;SDS011;6492;48.128;8.320;2023-08-12T09:14:58;3.78;;;3.35;;
12846;SDS011;6492;48.128;8.320;2023-08-12T09:19:00;4.50;;;2.80;;
12846;SDS011;6492;48.128;8.320;2023-08-12T09:23:02;4.13;;;3.72;;
12846;SDS011;6492;48.128;8.320;2023-08-12T09:27:04;3.42;;;2.97;;
12846;SDS011;6492;48.128;8.320;2023-08-12T09:31:07;4.03;;;3.65;;
12846;SDS011;6492;48.128;8.320;2023-08-12T09:35:22;4.00;;;3.60;;
12846;SDS011;6492;48.128;8.320;2023-08-12T09:39:24;4.32;;;3.40;;
12846;SDS011;6492;48.128;8.320;2023-08-12T09:43:37;3.55;;;3.25;;
12846;SDS011;6492;48.128;8.320;2023-08-12T09:47:43;4.78;;;3.20;;
12846;SDS011;6492;48.128;8.320;2023-08-12T09:51:45;3.63;;;3.33;;
12846;SDS011;6492;48.128;8.320;2023-08-12T09:55:56;3.38;;;2.80;;
12846;SDS011;6492;48.128;8.320;2023-08-12T10:00:02;3.88;;;3.40;;
12846;SDS011;6492;48.128;8.320;2023-08-12T10:04:13;3.47;;;3.03;;
12846;SDS011;6492;48.128;8.320;2023-08-12T10:08:18;4.00;;;3.60;;
12846;SDS011;6492;48.128;8.320;2023-08-12T10:12:20;5.68;;;4.95;;
12846;SDS011;6492;48.128;8.320;2023-08-12T10:16:23;3.97;;;3.58;;
12846;SDS011;6492;48.128;8.320;2023-08-12T10:20:26;4.05;;;3.08;;
12846;SDS011;6492;48.128;8.320;2023-08-12T10:24:30;4.60;;;3.90;;
12846;SDS011;6492;48.128;8.320;2023-08-12T10:28:34;7.13;;;3.50;;
12846;SDS011;6492;48.128;8.320;2023-08-12T10:32:38;3.88;;;3.35;;
12846;SDS011;6492;48.128;8.320;2023-08-12T10:36:42;3.65;;;3.35;;
12846;SDS011;6492;48.128;8.320;2023-08-12T10:40:47;4.57;;;2.85;;
12846;SDS011;6492;48.128;8.320;2023-08-12T10:44:49;4.30;;;3.00;;
12846;SDS011;6492;48.128;8.320;2023-08-12T10:49:05;5.30;;;3.70;;
12846;SDS011;6492;48.128;8.320;2023-08-12T10:53:21;5.32;;;4.05;;
12846;SDS011;6492;48.128;8.320;2023-08-12T10:57:34;3.30;;;3.00;;
12846;SDS011;6492;48.128;8.320;2023-08-12T11:01:38;3.28;;;2.65;;
12846;SDS011;6492;48.128;8.320;2023-08-12T11:05:40;3.58;;;3.28;;
12846;SDS011;6492;48.128;8.320;2023-08-12T11:09:43;7.25;;;6.57;;
12846;SDS011;6492;48.128;8.320;2023-08-12T11:13:46;4.63;;;3.05;;
12846;SDS011;6492;48.128;8.320;2023-08-12T11:17:48;3.92;;;2.95;;
12846;SDS011;6492;48.128;8.320;2023-08-12T11:21:51;3.65;;;3.17;;
12846;SDS011;6492;48.128;8.320;2023-08-12T11:25:58;5.55;;;3.05;;
12846;SDS011;6492;48.128;8.320;2023-08-12T11:30:00;3.60;;;3.30;;
12846;SDS011;6492;48.128;8.320;2023-08-12T11:34:02;3.70;;;3.40;;
12846;SDS011;6492;48.128;8.320;2023-08-12T11:38:06;5.93;;;4.30;;
12846;SDS011;6492;48.128;8.320;2023-08-12T11:42:10;5.05;;;4.22;;
12846;SDS011;6492;48.128;8.320;2023-08-12T11:46:11;5.43;;;3.33;;
12846;SDS011;6492;48.128;8.320;2023-08-12T11:50:16;6.03;;;4.13;;
12846;SDS011;6492;48.128;8.320;2023-08-12T11:54:19;8.30;;;3.90;;
12846;SDS011;6492;48.128;8.320;2023-08-12T11:58:23;4.00;;;3.47;;
12846;SDS011;6492;48.128;8.320;2023-08-12T12:02:24;4.07;;;3.58;;
12846;SDS011;6492;48.128;8.320;2023-08-12T12:06:30;5.18;;;3.38;;
12846;SDS011;6492;48.128;8.320;2023-08-12T12:10:33;4.68;;;3.50;;
12846;SDS011;6492;48.128;8.320;2023-08-12T12:14:37;4.57;;;3.55;;
12846;SDS011;6492;48.128;8.320;2023-08-12T12:18:38;4.97;;;3.67;;
12846;SDS011;6492;48.128;8.320;2023-08-12T12:22:41;5.82;;;4.00;;
12846;SDS011;6492;48.128;8.320;2023-08-12T12:26:44;4.60;;;4.20;;
12846;SDS011;6492;48.128;8.320;2023-08-12T12:30:48;4.72;;;4.10;;
12846;SDS011;6492;48.128;8.320;2023-08-12T12:34:49;5.15;;;4.65;;
12846;SDS011;6492;48.128;8.320;2023-08-12T12:38:52;6.93;;;4.10;;
12846;SDS011;6492;48.128;8.320;2023-08-12T12:42:54;6.03;;;3.97;;
12846;SDS011;6492;48.128;8.320;2023-08-12T12:46:57;6.28;;;4.30;;
12846;SDS011;6492;48.128;8.320;2023-08-12T12:50:59;4.93;;;3.92;;
12846;SDS011;6492;48.128;8.320;2023-08-12T12:55:01;5.25;;;3.70;;
12846;SDS011;6492;48.128;8.320;2023-08-12T12:59:04;4.05;;;3.65;;
12846;SDS011;6492;48.128;8.320;2023-08-12T13:03:07;3.85;;;3.30;;
12846;SDS011;6492;48.128;8.320;2023-08-12T13:07:09;3.80;;;3.40;;
12846;SDS011;6492;48.128;8.320;2023-08-12T13:11:11;4.10;;;3.30;;
12846;SDS011;6492;48.128;8.320;2023-08-12T13:15:13;5.65;;;3.63;;
12846;SDS011;6492;48.128;8.320;2023-08-12T13:19:16;3.95;;;3.33;;
12846;SDS011;6492;48.128;8.320;2023-08-12T13:23:18;5.70;;;3.72;;
12846;SDS011;6492;48.128;8.320;2023-08-12T13:27:19;5.35;;;3.38;;
12846;SDS011;6492;48.128;8.320;2023-08-12T13:31:21;5.22;;;3.42;;
12846;SDS011;6492;48.128;8.320;2023-08-12T13:35:24;3.72;;;3.42;;
12846;SDS011;6492;48.128;8.320;2023-08-12T13:39:26;4.35;;;3.63;;
12846;SDS011;6492;48.128;8.320;2023-08-12T13:43:28;4.03;;;3.33;;
12846;SDS011;6492;48.128;8.320;2023-08-12T13:47:30;3.60;;;3.30;;
12846;SDS011;6492;48.128;8.320;2023-08-12T13:51:33;4.50;;;3.60;;
12846;SDS011;6492;48.128;8.320;2023-08-12T13:55:35;3.75;;;3.42;;
12846;SDS011;6492;48.128;8.320;2023-08-12T13:59:37;4.47;;;3.42;;
12846;SDS011;6492;48.128;8.320;2023-08-12T14:03:40;5.85;;;3.67;;
12846;SDS011;6492;48.128;8.320;2023-08-12T14:07:43;4.63;;;3.92;;
12846;SDS011;6492;48.128;8.320;2023-08-12T14:11:45;4.82;;;4.30;;
12846;SDS011;6492;48.128;8.320;2023-08-12T14:15:47;5.95;;;4.13;;
12846;SDS011;6492;48.128;8.320;2023-08-12T14:19:49;4.85;;;3.75;;
12846;SDS011;6492;48.128;8.320;2023-08-12T14:23:53;4.20;;;3.80;;
12846;SDS011;6492;48.128;8.320;2023-08-12T14:27:54;4.68;;;3.53;;
12846;SDS011;6492;48.128;8.320;2023-08-12T14:31:56;4.18;;;3.58;;
12846;SDS011;6492;48.128;8.320;2023-08-12T14:35:58;4.57;;;3.50;;
12846;SDS011;6492;48.128;8.320;2023-08-12T14:40:02;3.55;;;3.10;;
12846;SDS011;6492;48.128;8.320;2023-08-12T14:44:04;3.65;;;3.33;;
12846;SDS011;6492;48.128;8.320;2023-08-12T14:48:06;4.45;;;3.20;;
12846;SDS011;6492;48.128;8.320;2023-08-12T14:52:14;7.57;;;3.65;;
12846;SDS011;6492;48.128;8.320;2023-08-12T14:56:18;5.57;;;3.13;;
12846;SDS011;6492;48.128;8.320;2023-08-12T15:00:20;3.88;;;3.20;;
12846;SDS011;6492;48.128;8.320;2023-08-12T15:04:22;6.10;;;3.20;;
12846;SDS011;6492;48.128;8.320;2023-08-12T15:08:24;3.58;;;3.22;;
12846;SDS011;6492;48.128;8.320;2023-08-12T15:12:27;5.30;;;3.30;;
12846;SDS011;6492;48.128;8.320;2023-08-12T15:16:29;3.50;;;3.17;;
12846;SDS011;6492;48.128;8.320;2023-08-12T15:20:31;4.72;;;3.60;;
12846;SDS011;6492;48.128;8.320;2023-08-12T15:24:33;6.15;;;3.78;;
12846;SDS011;6492;48.128;8.320;2023-08-12T15:28:36;3.50;;;3.20;;
12846;SDS011;6492;48.128;8.320;2023-08-12T15:32:38;4.20;;;3.65;;
12846;SDS011;6492;48.128;8.320;2023-08-12T15:36:40;6.88;;;3.70;;
12846;SDS011;6492;48.128;8.320;2023-08-12T15:40:49;4.10;;;3.70;;
12846;SDS011;6492;48.128;8.320;2023-08-12T15:44:52;4.13;;;3.72;;
12846;SDS011;6492;48.128;8.320;2023-08-12T15:48:55;6.57;;;3.72;;
12846;SDS011;6492;48.128;8.320;2023-08-12T15:52:57;5.00;;;3.47;;
12846;SDS011;6492;48.128;8.320;2023-08-12T15:56:59;5.68;;;3.90;;
12846;SDS011;6492;48.128;8.320;2023-08-12T16:01:08;5.28;;;3.47;;
12846;SDS011;6492;48.128;8.320;2023-08-12T16:05:10;5.15;;;3.83;;
12846;SDS011;6492;48.128;8.320;2023-08-12T16:09:12;4.00;;;3.50;;
12846;SDS011;6492;48.128;8.320;2023-08-12T16:13:14;4.20;;;3.70;;
12846;SDS011;6492;48.128;8.320;2023-08-12T16:17:17;7.18;;;3.70;;
12846;SDS011;6492;48.128;8.320;2023-08-12T16:21:19;4.15;;;3.80;;
12846;SDS011;6492;48.128;8.320;2023-08-12T16:25:21;4.93;;;3.63;;
12846;SDS011;6492;48.128;8.320;2023-08-12T16:29:23;5.03;;;3.53;;
12846;SDS011;6492;48.128;8.320;2023-08-12T16:33:26;3.88;;;3.30;;
12846;SDS011;6492;48.128;8.320;2023-08-12T16:37:27;4.53;;;3.85;;
12846;SDS011;6492;48.128;8.320;2023-08-12T16:41:29;5.30;;;4.20;;
12846;SDS011;6492;48.128;8.320;2023-08-12T16:45:31;5.07;;;4.03;;
12846;SDS011;6492;48.128;8.320;2023-08-12T16:49:34;5.63;;;3.95;;
12846;SDS011;6492;48.128;8.320;2023-08-12T16:53:36;5.45;;;4.45;;
12846;SDS011;6492;48.128;8.320;2023-08-12T16:57:38;7.30;;;4.13;;
12846;SDS011;6492;48.128;8.320;2023-08-12T17:01:40;6.13;;;4.43;;
12846;SDS011;6492;48.128;8.320;2023-08-12T17:05:43;5.97;;;3.88;;
12846;SDS011;6492;48.128;8.320;2023-08-12T17:09:44;4.97;;;3.70;;
12846;SDS011;6492;48.128;8.320;2023-08-12T17:13:46;5.80;;;4.07;;
12846;SDS011;6492;48.128;8.320;2023-08-12T17:17:48;3.85;;;3.45;;
12846;SDS011;6492;48.128;8.320;2023-08-12T17:21:52;5.95;;;3.75;;
12846;SDS011;6492;48.128;8.320;2023-08-12T17:25:54;6.40;;;3.70;;
12846;SDS011;6492;48.128;8.320;2023-08-12T17:34:08;3.60;;;3.30;;
12846;SDS011;6492;48.128;8.320;2023-08-12T17:38:11;3.75;;;3.45;;
12846;SDS011;6492;48.128;8.320;2023-08-12T17:42:13;4.03;;;3.63;;
12846;SDS011;6492;48.128;8.320;2023-08-12T17:46:15;5.45;;;4.05;;
12846;SDS011;6492;48.128;8.320;2023-08-12T17:50:17;4.75;;;3.92;;
12846;SDS011;6492;48.128;8.320;2023-08-12T17:54:20;4.30;;;3.80;;
12846;SDS011;6492;48.128;8.320;2023-08-12T17:58:22;4.38;;;3.97;;
12846;SDS011;6492;48.128;8.320;2023-08-12T18:02:23;4.10;;;3.70;;
12846;SDS011;6492;48.128;8.320;2023-08-12T18:06:25;4.38;;;3.58;;
12846;SDS011;6492;48.128;8.320;2023-08-12T18:10:28;4.18;;;3.78;;
12846;SDS011;6492;48.128;8.320;2023-08-12T18:14:30;4.38;;;3.97;;
12846;SDS011;6492;48.128;8.320;2023-08-12T18:18:32;4.53;;;4.05;;
12846;SDS011;6492;48.128;8.320;2023-08-12T18:22:34;5.00;;;3.95;;
12846;SDS011;6492;48.128;8.320;2023-08-12T18:26:37;4.30;;;3.60;;
12846;SDS011;6492;48.128;8.320;2023-08-12T18:30:39;3.75;;;3.30;;
12846;SDS011;6492;48.128;8.320;2023-08-12T18:34:40;4.45;;;4.05;;
12846;SDS011;6492;48.128;8.320;2023-08-12T18:38:42;4.55;;;4.00;;
12846;SDS011;6492;48.128;8.320;2023-08-12T18:42:46;4.07;;;3.75;;
12846;SDS011;6492;48.128;8.320;2023-08-12T18:46:48;4.35;;;3.95;;
12846;SDS011;6492;48.128;8.320;2023-08-12T18:50:50;4.80;;;4.05;;
12846;SDS011;6492;48.128;8.320;2023-08-12T18:54:52;5.82;;;4.72;;
12846;SDS011;6492;48.128;8.320;2023-08-12T18:58:55;4.65;;;4.25;;
12846;SDS011;6492;48.128;8.320;2023-08-12T19:02:57;4.88;;;4.47;;
12846;SDS011;6492;48.128;8.320;2023-08-12T19:06:58;5.85;;;4.15;;
12846;SDS011;6492;48.128;8.320;2023-08-12T19:11:00;6.50;;;4.40;;
12846;SDS011;6492;48.128;8.320;2023-08-12T19:15:04;5.47;;;4.70;;
12846;SDS011;6492;48.128;8.320;2023-08-12T19:19:08;4.72;;;4.20;;
12846;SDS011;6492;48.128;8.320;2023-08-12T19:23:10;5.20;;;4.60;;
12846;SDS011;6492;48.128;8.320;2023-08-12T19:27:12;5.13;;;4.63;;
12846;SDS011;6492;48.128;8.320;2023-08-12T19:31:15;5.72;;;5.13;;
12846;SDS011;6492;48.128;8.320;2023-08-12T19:35:18;6.03;;;4.88;;
12846;SDS011;6492;48.128;8.320;2023-08-12T19:39:20;7.60;;;5.30;;
12846;SDS011;6492;48.128;8.320;2023-08-12T19:43:22;5.85;;;5.25;;
12846;SDS011;6492;48.128;8.320;2023-08-12T19:47:25;5.50;;;5.00;;
12846;SDS011;6492;48.128;8.320;2023-08-12T19:51:27;5.90;;;5.40;;
12846;SDS011;6492;48.128;8.320;2023-08-12T19:55:31;5.55;;;5.05;;
12846;SDS011;6492;48.128;8.320;2023-08-12T19:59:33;5.05;;;4.65;;
12846;SDS011;6492;48.128;8.320;2023-08-12T20:03:37;6.78;;;5.75;;
12846;SDS011;6492;48.128;8.320;2023-08-12T20:07:38;5.60;;;4.97;;
12846;SDS011;6492;48.128;8.320;2023-08-12T20:11:40;7.18;;;5.40;;
12846;SDS011;6492;48.128;8.320;2023-08-12T20:15:43;6.78;;;5.72;;
12846;SDS011;6492;48.128;8.320;2023-08-12T20:19:46;6.88;;;5.80;;
12846;SDS011;6492;48.128;8.320;2023-08-12T20:23:50;7.22;;;6.03;;
12846;SDS011;6492;48.128;8.320;2023-08-12T20:27:52;7.38;;;6.07;;
12846;SDS011;6492;48.128;8.320;2023-08-12T20:31:54;6.90;;;5.65;;
12846;SDS011;6492;48.128;8.320;2023-08-12T20:35:58;7.65;;;5.95;;
12846;SDS011;6492;48.128;8.320;2023-08-12T20:39:59;7.63;;;5.88;;
12846;SDS011;6492;48.128;8.320;2023-08-12T20:44:05;6.90;;;5.88;;
12846;SDS011;6492;48.128;8.320;2023-08-12T20:48:07;8.63;;;5.55;;
12846;SDS011;6492;48.128;8.320;2023-08-12T20:52:10;7.30;;;5.30;;
12846;SDS011;6492;48.128;8.320;2023-08-12T20:56:12;8.10;;;5.22;;
12846;SDS011;6492;48.128;8.320;2023-08-12T21:00:14;5.93;;;4.75;;
12846;SDS011;6492;48.128;8.320;2023-08-12T21:04:16;6.18;;;5.05;;
12846;SDS011;6492;48.128;8.320;2023-08-12T21:08:19;7.50;;;4.90;;
12846;SDS011;6492;48.128;8.320;2023-08-12T21:12:21;7.10;;;4.90;;
12846;SDS011;6492;48.128;8.320;2023-08-12T21:16:23;6.55;;;4.68;;
12846;SDS011;6492;48.128;8.320;2023-08-12T21:20:25;5.55;;;4.53;;
12846;SDS011;6492;48.128;8.320;2023-08-12T21:24:35;5.28;;;4.78;;
12846;SDS011;6492;48.128;8.320;2023-08-12T21:28:36;4.90;;;4.45;;
12846;SDS011;6492;48.128;8.320;2023-08-12T21:32:38;5.43;;;4.55;;
12846;SDS011;6492;48.128;8.320;2023-08-12T21:36:40;5.85;;;4.40;;
12846;SDS011;6492;48.128;8.320;2023-08-12T21:40:43;6.70;;;4.53;;
12846;SDS011;6492;48.128;8.320;2023-08-12T21:44:45;7.93;;;4.97;;
12846;SDS011;6492;48.128;8.320;2023-08-12T21:48:46;5.50;;;4.90;;
12846;SDS011;6492;48.128;8.320;2023-08-12T21:52:48;5.00;;;4.60;;
12846;SDS011;6492;48.128;8.320;2023-08-12T21:56:51;5.25;;;4.50;;
12846;SDS011;6492;48.128;8.320;2023-08-12T22:00:54;4.75;;;4.13;;
12846;SDS011;6492;48.128;8.320;2023-08-12T22:04:56;5.50;;;4.75;;
12846;SDS011;6492;48.128;8.320;2023-08-12T22:08:58;5.25;;;4.75;;
12846;SDS011;6492;48.128;8.320;2023-08-12T22:13:01;4.93;;;4.43;;
12846;SDS011;6492;48.128;8.320;2023-08-12T22:17:03;7.45;;;5.40;;
12846;SDS011;6492;48.128;8.320;2023-08-12T22:21:06;5.80;;;4.90;;
12846;SDS011;6492;48.128;8.320;2023-08-12T22:25:08;4.63;;;4.22;;
12846;SDS011;6492;48.128;8.320;2023-08-12T22:29:11;6.40;;;4.88;;
12846;SDS011;6492;48.128;8.320;2023-08-12T22:33:14;5.75;;;4.88;;
12846;SDS011;6492;48.128;8.320;2023-08-12T22:37:16;7.07;;;6.20;;
12846;SDS011;6492;48.128;8.320;2023-08-12T22:41:18;6.20;;;5.60;;
12846;SDS011;6492;48.128;8.320;2023-08-12T22:45:21;8.57;;;5.90;;
12846;SDS011;6492;48.128;8.320;2023-08-12T22:49:23;8.48;;;5.93;;
12846;SDS011;6492;48.128;8.320;2023-08-12T22:53:25;7.55;;;5.97;;
12846;SDS011;6492;48.128;8.320;2023-08-12T22:57:28;7.63;;;5.40;;
12846;SDS011;6492;48.128;8.320;2023-08-12T23:01:31;6.13;;;5.47;;
12846;SDS011;6492;48.128;8.320;2023-08-12T23:05:33;6.10;;;5.50;;
12846;SDS011;6492;48.128;8.320;2023-08-12T23:09:34;5.32;;;4.82;;
12846;SDS011;6492;48.128;8.320;2023-08-12T23:13:36;5.83;;;5.10;;
12846;SDS011;6492;48.128;8.320;2023-08-12T23:17:39;6.90;;;5.15;;
12846;SDS011;6492;48.128;8.320;2023-08-12T23:21:41;5.87;;;5.10;;
12846;SDS011;6492;48.128;8.320;2023-08-12T23:25:43;6.15;;;5.55;;
12846;SDS011;6492;48.128;8.320;2023-08-12T23:29:44;9.82;;;6.45;;
12846;SDS011;6492;48.128;8.320;2023-08-12T23:33:47;7.60;;;6.65;;
12846;SDS011;6492;48.128;8.320;2023-08-12T23:37:49;7.10;;;6.30;;
12846;SDS011;6492;48.128;8.320;2023-08-12T23:41:51;6.93;;;6.22;;
12846;SDS011;6492;48.128;8.320;2023-08-12T23:45:57;6.60;;;5.45;;
12846;SDS011;6492;48.128;8.320;2023-08-12T23:50:01;5.47;;;4.97;;
12846;SDS011;6492;48.128;8.320;2023-08-12T23:54:03;5.90;;;5.25;;
12846;SDS011;6492;48.128;8.320;2023-08-12T23:58:06;5.40;;;4.90;;
